Time;durP1;ratioP1;P1;durP2;ratioP2;P2;SDS_P1;SDS_P2;PMS_P1;PMS_P2;Temp;Humidity;BMP_temperature;BMP_pressure;BME280_temperature;BME280_humidity;BME280_pressure;Samples;Min_cycle;Max_cycle;Signal;HPM_P1;HPM_P2
2021/09/08 00:01:28;;;;;;;;;;;;;;;-142.75;90.03;77056.53;5096865;28;20390;-75
2021/09/08 00:03:53;;;;;;;;;;;;;;;-142.75;89.69;77054.56;5028893;28;20406;-75
2021/09/08 00:06:18;;;;;;;;;;;;;;;-142.75;89.28;77058.50;5097037;28;19919;-76
2021/09/08 00:08:43;;;;;;;;;;;;;;;-142.75;88.92;77046.69;5028771;28;19940;-76
2021/09/08 00:11:09;;;;;;;;;;;;;;;-142.75;88.57;77056.53;5028360;28;19948;-75
2021/09/08 00:13:34;;;;;;;;;;;;;;;-142.75;88.58;77058.50;5028570;28;19921;-75
2021/09/08 00:15:59;;;;;;;;;;;;;;;-142.75;88.79;77070.31;5028562;28;19913;-76
2021/09/08 00:18:24;;;;;;;;;;;;;;;-142.75;89.03;77062.44;5025967;28;19921;-76
2021/09/08 00:20:49;;;;;;;;;;;;;;;-142.75;89.85;77066.38;5028308;28;19917;-75
2021/09/08 00:23:15;;;;;;;;;;;;;;;-142.75;90.93;77082.13;5028552;28;19913;-76
2021/09/08 00:25:40;;;;;;;;;;;;;;;-142.75;91.26;77078.19;5028580;28;19917;-76
2021/09/08 00:28:05;;;;;;;;;;;;;;;-142.75;91.42;77084.09;5028216;28;19981;-75
2021/09/08 00:30:31;;;;;;;;;;;;;;;-142.75;91.99;77090.00;5028146;28;19958;-76
2021/09/08 00:32:56;;;;;;;;;;;;;;;-142.75;92.38;77091.97;5028186;28;19913;-77
2021/09/08 00:35:21;;;;;;;;;;;;;;;-142.75;92.08;77086.06;5028324;28;19920;-76
2021/09/08 00:37:46;;;;;;;;;;;;;;;-142.75;91.60;77095.91;5028259;28;20392;-76
2021/09/08 00:40:11;;;;;;;;;;;;;;;-142.75;90.96;77090.00;5027786;28;19920;-75
2021/09/08 00:42:37;;;;;;;;;;;;;;;-142.75;90.56;77097.88;5027942;28;20742;-76
2021/09/08 00:45:02;;;;;;;;;;;;;;;-142.75;90.51;77103.78;5027841;28;19913;-76
2021/09/08 00:47:27;;;;;;;;;;;;;;;-142.75;90.77;77103.78;5096594;28;20328;-75
2021/09/08 00:49:53;;;;;;;;;;;;;;;-142.75;91.05;77101.81;5096310;28;19921;-75
2021/09/08 00:52:18;;;;;;;;;;;;;;;-142.75;90.73;77105.75;5027741;28;19913;-76
2021/09/08 00:54:47;;;;;;;;;;;;;;;-142.75;91.30;77099.84;5028284;28;19916;-76
2021/09/08 00:57:13;;;;;;;;;;;;;;;-142.75;92.09;77105.75;5095353;28;19968;-76
2021/09/08 00:59:38;;;;;;;;;;;;;;;-142.75;92.14;77105.75;5027838;28;19920;-76
2021/09/08 01:02:06;;;;;;;;;;;;;;;-142.75;91.83;77107.72;5027506;28;19921;-76
2021/09/08 01:04:32;;;;;;;;;;;;;;;-142.75;91.72;77107.72;5027779;28;20344;-75
2021/09/08 01:07:04;;;;;;;;;;;;;;;-142.75;91.34;77097.88;5096155;28;19921;-76
2021/09/08 01:09:30;;;;;;;;;;;;;;;-142.75;91.21;77101.81;5027737;28;19921;-76
2021/09/08 01:11:56;;;;;;;;;;;;;;;-142.75;91.13;77090.00;5095691;28;19966;-76
2021/09/08 01:14:21;;;;;;;;;;;;;;;-142.75;91.56;77095.91;5027708;28;19917;-76
2021/09/08 01:16:54;;;;;;;;;;;;;;;-142.75;91.91;77097.88;5027460;28;20390;-76
2021/09/08 01:19:20;;;;;;;;;;;;;;;-142.75;91.84;77082.13;5027886;28;20398;-76
2021/09/08 01:21:45;;;;;;;;;;;;;;;-142.75;93.43;77095.91;5027301;28;19917;-75
2021/09/08 01:24:10;;;;;;;;;;;;;;;-142.75;96.03;77097.88;5027601;28;19920;-76
2021/09/08 01:26:36;;;;;;;;;;;;;;;-142.75;97.19;77097.88;5095778;28;20279;-76
2021/09/08 01:29:02;;;;;;;;;;;;;;;-142.75;97.33;77088.03;5095469;28;19942;-76
2021/09/08 01:31:27;;;;;;;;;;;;;;;-142.75;96.62;77062.44;5027290;28;19968;-76
2021/09/08 01:33:52;;;;;;;;;;;;;;;-142.75;94.75;77038.81;5027553;28;19913;-76
2021/09/08 01:36:17;;;;;;;;;;;;;;;-142.75;93.10;77019.13;5027645;28;20374;-76
2021/09/08 01:38:43;;;;;;;;;;;;;;;-142.75;91.54;76993.53;5027604;28;20309;-74
2021/09/08 01:41:08;;;;;;;;;;;;;;;-142.75;90.20;76983.69;5023602;28;19928;-75
2021/09/08 01:43:33;;;;;;;;;;;;;;;-142.75;89.80;76987.63;5027519;28;19952;-75
2021/09/08 01:45:58;;;;;;;;;;;;;;;-142.75;89.24;76967.94;5027435;28;19913;-76
2021/09/08 01:48:23;;;;;;;;;;;;;;;-142.75;88.34;76956.13;5027667;28;20343;-75
2021/09/08 01:50:49;;;;;;;;;;;;;;;-142.75;87.79;76960.06;5027093;28;19920;-75
2021/09/08 01:53:14;;;;;;;;;;;;;;;-142.75;87.15;76991.56;5095133;28;19916;-75
2021/09/08 01:55:39;;;;;;;;;;;;;;;-142.75;87.32;77015.19;5027287;28;19923;-75
2021/09/08 01:58:04;;;;;;;;;;;;;;;-142.75;88.15;77042.75;5095278;28;19955;-75
2021/09/08 02:00:30;;;;;;;;;;;;;;;-142.75;89.04;77066.38;5026628;28;19917;-75
2021/09/08 02:02:55;;;;;;;;;;;;;;;-142.75;90.06;77080.16;5026884;28;20370;-75
2021/09/08 02:05:20;;;;;;;;;;;;;;;-142.75;90.72;77090.00;5095341;28;19913;-75
2021/09/08 02:07:45;;;;;;;;;;;;;;;-142.75;91.18;77109.69;5095266;28;20346;-75
2021/09/08 02:10:11;;;;;;;;;;;;;;;-142.75;92.00;77121.50;5097711;28;20322;-75
2021/09/08 02:12:37;;;;;;;;;;;;;;;-142.75;92.59;77123.47;5099321;28;19913;-75
2021/09/08 02:15:02;;;;;;;;;;;;;;;-142.75;93.00;77123.47;5030395;28;20393;-76
2021/09/08 02:17:28;;;;;;;;;;;;;;;-142.75;92.78;77135.28;5099168;28;20389;-75
2021/09/08 02:19:54;;;;;;;;;;;;;;;-142.75;92.65;77145.13;5030438;28;19920;-75
2021/09/08 02:22:19;;;;;;;;;;;;;;;-142.75;92.80;77151.03;5030202;28;19937;-75
2021/09/08 02:24:44;;;;;;;;;;;;;;;-142.75;93.16;77153.00;5030189;28;19917;-75
2021/09/08 02:27:10;;;;;;;;;;;;;;;-142.75;93.45;77153.00;5030418;28;19920;-75
2021/09/08 02:29:35;;;;;;;;;;;;;;;-142.75;93.88;77162.84;5094910;28;19959;-75
2021/09/08 02:32:00;;;;;;;;;;;;;;;-142.75;94.13;77156.94;5095631;28;19956;-76
2021/09/08 02:34:26;;;;;;;;;;;;;;;-142.75;94.17;77143.16;5030321;28;20286;-75
2021/09/08 02:36:51;;;;;;;;;;;;;;;-142.75;94.89;77145.13;5030055;28;20382;-75
2021/09/08 02:39:16;;;;;;;;;;;;;;;-142.75;95.58;77151.03;5030075;28;19966;-75
2021/09/08 02:41:41;;;;;;;;;;;;;;;-142.75;95.67;77147.09;5029639;28;20406;-75
2021/09/08 02:44:06;;;;;;;;;;;;;;;-142.75;95.58;77137.25;5029976;28;19925;-75
2021/09/08 02:46:32;;;;;;;;;;;;;;;-142.75;95.56;77135.28;5098406;28;19921;-75
2021/09/08 02:48:58;;;;;;;;;;;;;;;-142.75;95.33;77141.19;5030533;28;20346;-75
2021/09/08 02:51:23;;;;;;;;;;;;;;;-142.75;95.28;77149.06;5029377;28;19913;-75
2021/09/08 02:53:48;;;;;;;;;;;;;;;-142.75;95.19;77154.97;5029963;28;19913;-74
2021/09/08 02:56:13;;;;;;;;;;;;;;;-142.75;94.94;77166.78;5029728;28;20309;-75
2021/09/08 02:58:38;;;;;;;;;;;;;;;-142.75;95.22;77166.78;5029941;28;19927;-75
2021/09/08 03:01:04;;;;;;;;;;;;;;;-142.75;95.25;77162.84;5029437;28;19990;-76
2021/09/08 03:03:29;;;;;;;;;;;;;;;-142.75;94.92;77168.75;5029637;28;20344;-74
2021/09/08 03:05:55;;;;;;;;;;;;;;;-142.75;94.98;77166.78;5029758;28;19922;-74
2021/09/08 03:08:20;;;;;;;;;;;;;;;-142.75;95.15;77166.78;5029723;28;20000;-75
2021/09/08 03:10:46;;;;;;;;;;;;;;;-142.75;94.83;77164.81;5029293;28;20374;-75
2021/09/08 03:13:12;;;;;;;;;;;;;;;-142.75;94.98;77184.50;5098132;28;19942;-75
2021/09/08 03:15:38;;;;;;;;;;;;;;;-142.75;94.96;77174.66;5029562;28;20259;-76
2021/09/08 03:18:04;;;;;;;;;;;;;;;-142.75;95.40;77182.53;5030000;28;19913;-75
2021/09/08 03:20:29;;;;;;;;;;;;;;;-142.75;95.84;77182.53;5028349;28;20453;-75
2021/09/08 03:22:54;;;;;;;;;;;;;;;-142.75;96.17;77172.69;5097645;28;20328;-75
2021/09/08 03:25:19;;;;;;;;;;;;;;;-142.75;96.67;77172.69;5029602;28;20061;-75
2021/09/08 03:27:44;;;;;;;;;;;;;;;-142.75;96.78;77168.75;5029125;28;19913;-75
2021/09/08 03:30:10;;;;;;;;;;;;;;;-142.75;96.59;77164.81;5028963;28;19917;-76
2021/09/08 03:32:35;;;;;;;;;;;;;;;-142.75;96.26;77162.84;5097632;28;19913;-75
2021/09/08 03:35:00;;;;;;;;;;;;;;;-142.75;95.58;77172.69;5097923;28;20061;-75
2021/09/08 03:37:26;;;;;;;;;;;;;;;-142.75;95.30;77176.63;5029080;28;20388;-75
2021/09/08 03:39:54;;;;;;;;;;;;;;;-142.75;95.21;77178.59;5029126;28;19919;-75
2021/09/08 03:42:19;;;;;;;;;;;;;;;-142.75;95.67;77188.44;5078941;22;19949;-77
2021/09/08 03:44:44;;;;;;;;;;;;;;;-142.75;97.19;77196.31;4973900;28;19925;-77
2021/09/08 03:47:09;;;;;;;;;;;;;;;-142.75;99.15;77192.38;4957292;28;19914;-78
2021/09/08 03:49:35;;;;;;;;;;;;;;;-142.75;99.93;77196.31;4974991;28;19921;-77
2021/09/08 03:52:00;;;;;;;;;;;;;;;-142.75;100.00;77196.31;4957919;28;20292;-75
2021/09/08 03:54:25;;;;;;;;;;;;;;;-142.75;100.00;77198.28;4993474;28;19920;-77
2021/09/08 03:56:50;;;;;;;;;;;;;;;-142.75;100.00;77204.19;4975747;28;19913;-78
2021/09/08 03:59:15;;;;;;;;;;;;;;;-142.75;100.00;77188.44;4977067;28;20398;-77
2021/09/08 04:01:41;;;;;;;;;;;;;;;-142.75;100.00;77176.63;4976182;28;19918;-78
2021/09/08 04:04:06;;;;;;;;;;;;;;;-142.75;100.00;77164.81;4975723;28;19914;-77
2021/09/08 04:06:31;;;;;;;;;;;;;;;-142.75;100.00;77154.97;4994745;28;19956;-75
2021/09/08 04:08:56;;;;;;;;;;;;;;;-142.75;100.00;77149.06;4975882;28;19927;-78
2021/09/08 04:11:21;;;;;;;;;;;;;;;-142.75;99.82;77153.00;4975039;28;20329;-78
2021/09/08 04:13:47;;;;;;;;;;;;;;;-142.75;99.45;77156.94;4992151;28;19920;-78
2021/09/08 04:16:12;;;;;;;;;;;;;;;-142.75;99.14;77170.72;4974346;28;19937;-78
2021/09/08 04:18:37;;;;;;;;;;;;;;;-142.75;99.42;77182.53;4991831;28;19967;-78
2021/09/08 04:21:02;;;;;;;;;;;;;;;-142.75;98.62;77190.41;4991438;28;19921;-78
2021/09/08 04:23:28;;;;;;;;;;;;;;;-142.75;97.76;77198.28;4973069;28;19929;-78
2021/09/08 04:25:53;;;;;;;;;;;;;;;-142.75;97.70;77210.09;4973878;28;20367;-77
2021/09/08 04:28:18;;;;;;;;;;;;;;;-142.75;97.84;77210.09;4972845;28;20010;-78
2021/09/08 04:30:43;;;;;;;;;;;;;;;-142.75;98.15;77221.91;4991836;28;19918;-77
2021/09/08 04:33:09;;;;;;;;;;;;;;;-142.75;98.59;77219.94;4977263;28;19944;-78
2021/09/08 04:35:34;;;;;;;;;;;;;;;-142.75;98.81;77221.91;4978993;28;19921;-77
2021/09/08 04:37:59;;;;;;;;;;;;;;;-142.75;98.47;77229.78;4996631;28;19979;-78
2021/09/08 04:40:25;;;;;;;;;;;;;;;-142.75;98.56;77223.88;4978634;28;19949;-77
2021/09/08 04:42:50;;;;;;;;;;;;;;;-142.75;98.58;77221.91;4978174;28;19917;-77
2021/09/08 04:45:15;;;;;;;;;;;;;;;-142.75;98.53;77219.94;4993025;28;19914;-77
2021/09/08 04:47:40;;;;;;;;;;;;;;;-142.75;98.12;77217.97;4990422;28;19960;-77
2021/09/08 04:50:06;;;;;;;;;;;;;;;-142.75;97.72;77212.06;4973531;28;19956;-78
2021/09/08 04:52:32;;;;;;;;;;;;;;;-142.75;97.69;77206.16;4973720;28;20354;-77
2021/09/08 04:54:58;;;;;;;;;;;;;;;-142.75;97.14;77210.09;4972607;28;19962;-78
2021/09/08 04:57:23;;;;;;;;;;;;;;;-142.75;97.05;77212.06;4972263;28;19973;-78
2021/09/08 04:59:48;;;;;;;;;;;;;;;-142.75;97.41;77216.00;4990961;28;20012;-78
2021/09/08 05:02:13;;;;;;;;;;;;;;;-142.75;97.12;77212.06;4989757;28;19925;-78
2021/09/08 05:04:38;;;;;;;;;;;;;;;-142.75;97.02;77212.06;4990889;28;20433;-77
2021/09/08 05:07:04;;;;;;;;;;;;;;;-142.75;98.08;77223.88;4991414;28;19951;-77
2021/09/08 05:09:29;;;;;;;;;;;;;;;-142.75;98.64;77223.88;4973729;28;20005;-78
2021/09/08 05:11:54;;;;;;;;;;;;;;;-142.75;98.98;77217.97;4972709;28;19957;-77
2021/09/08 05:14:19;;;;;;;;;;;;;;;-142.75;98.80;77216.00;4989015;28;20330;-78
2021/09/08 05:16:44;;;;;;;;;;;;;;;-142.75;98.61;77208.13;4989030;28;19939;-78
2021/09/08 05:19:10;;;;;;;;;;;;;;;-142.75;98.33;77208.13;4972405;28;19928;-78
2021/09/08 05:21:35;;;;;;;;;;;;;;;-142.75;98.14;77208.13;4989770;28;20406;-78
2021/09/08 05:24:00;;;;;;;;;;;;;;;-142.75;98.48;77216.00;4973424;28;19914;-78
2021/09/08 05:26:25;;;;;;;;;;;;;;;-142.75;99.20;77219.94;4975142;28;19914;-77
2021/09/08 05:28:50;;;;;;;;;;;;;;;-142.75;99.39;77217.97;4992596;28;19914;-78
2021/09/08 05:31:15;;;;;;;;;;;;;;;-142.75;100.00;77212.06;4991910;28;19913;-78
2021/09/08 05:33:41;;;;;;;;;;;;;;;-142.75;100.00;77202.22;4975099;28;19913;-77
2021/09/08 05:36:06;;;;;;;;;;;;;;;-142.75;100.00;77194.34;4993804;28;20264;-77
2021/09/08 05:38:31;;;;;;;;;;;;;;;-142.75;100.00;77153.00;4975985;28;20033;-78
2021/09/08 05:40:56;;;;;;;;;;;;;;;-142.75;100.00;77105.75;4992460;28;19959;-77
2021/09/08 05:43:22;;;;;;;;;;;;;;;-142.75;99.77;77060.47;4976175;28;19913;-77
2021/09/08 05:45:47;;;;;;;;;;;;;;;-142.75;96.86;77011.25;4977253;28;19951;-78
2021/09/08 05:48:12;;;;;;;;;;;;;;;-142.75;93.31;76967.94;4995628;28;20008;-78
2021/09/08 05:50:37;;;;;;;;;;;;;;;-142.75;91.55;76956.13;4977512;28;19984;-78
2021/09/08 05:53:03;;;;;;;;;;;;;;;-142.75;89.61;76936.44;4977130;28;19914;-77
2021/09/08 05:55:31;;;;;;;;;;;;;;;-142.75;88.16;76901.00;4995990;28;19913;-77
2021/09/08 05:57:56;;;;;;;;;;;;;;;-142.75;86.53;76895.09;4994217;28;20314;-78
2021/09/08 06:00:21;;;;;;;;;;;;;;;-142.75;84.68;76826.19;4977552;28;19920;-77
2021/09/08 06:02:47;;;;;;;;;;;;;;;-142.75;83.62;76806.50;4977698;28;19913;-78
2021/09/08 06:05:12;;;;;;;;;;;;;;;-142.75;81.96;76794.69;4979210;28;19914;-78
2021/09/08 06:07:37;;;;;;;;;;;;;;;-142.75;81.73;76784.88;4995993;28;20440;-78
2021/09/08 06:10:02;;;;;;;;;;;;;;;-142.75;81.71;76767.16;4978322;28;20344;-77
2021/09/08 06:12:28;;;;;;;;;;;;;;;-142.75;80.41;76739.59;4978360;28;20387;-78
2021/09/08 06:14:53;;;;;;;;;;;;;;;-142.75;78.89;76719.91;4996413;28;19913;-78
2021/09/08 06:17:18;;;;;;;;;;;;;;;-142.75;78.00;76700.22;4978520;28;19996;-77
2021/09/08 06:19:43;;;;;;;;;;;;;;;-142.75;77.01;76692.34;4978922;28;19915;-79
2021/09/08 06:22:09;;;;;;;;;;;;;;;-142.75;76.66;76676.59;4977027;28;19925;-78
2021/09/08 06:24:34;;;;;;;;;;;;;;;-142.75;76.89;76666.75;4978833;28;19921;-78
2021/09/08 06:26:59;;;;;;;;;;;;;;;-142.75;76.73;76660.84;4977631;28;19913;-78
2021/09/08 06:29:25;;;;;;;;;;;;;;;-142.75;76.27;76660.84;4979899;28;20287;-78
2021/09/08 06:31:50;;;;;;;;;;;;;;;-142.75;74.99;76607.69;4978624;28;19922;-78
2021/09/08 06:34:15;;;;;;;;;;;;;;;-142.75;73.83;76578.16;4979389;28;19921;-78
2021/09/08 06:36:40;;;;;;;;;;;;;;;-142.75;72.82;76552.56;4979017;28;20005;-78
2021/09/08 06:39:08;;;;;;;;;;;;;;;-142.75;72.41;76546.66;4979102;28;20383;-78
2021/09/08 06:41:34;;;;;;;;;;;;;;;-142.75;71.56;76507.31;4994927;28;20000;-78
2021/09/08 06:43:59;;;;;;;;;;;;;;;-142.75;70.59;76489.59;4978364;28;20018;-78
2021/09/08 06:46:24;;;;;;;;;;;;;;;-142.75;71.53;76519.13;4995418;28;20327;-77
2021/09/08 06:48:49;;;;;;;;;;;;;;;-142.75;70.04;76458.09;4996544;28;19924;-78
2021/09/08 06:51:15;;;;;;;;;;;;;;;-142.75;68.55;76422.66;4994940;28;19918;-79
2021/09/08 06:53:41;;;;;;;;;;;;;;;-142.75;67.86;76416.75;4995656;28;19918;-77
2021/09/08 06:56:06;;;;;;;;;;;;;;;-142.75;66.70;76381.31;4994420;28;20000;-78
2021/09/08 06:58:31;;;;;;;;;;;;;;;-142.75;65.85;76306.53;4995853;28;19914;-78
2021/09/08 07:00:56;;;;;;;;;;;;;;;-142.75;64.46;76306.53;4995020;28;19939;-77
2021/09/08 07:03:22;;;;;;;;;;;;;;;-142.75;62.78;76277.00;4996853;28;19914;-78
2021/09/08 07:05:47;;;;;;;;;;;;;;;-142.75;63.46;76302.59;4996387;28;19922;-77
2021/09/08 07:08:14;;;;;;;;;;;;;;;-142.75;62.67;76243.53;4995953;28;20329;-78
2021/09/08 07:10:39;;;;;;;;;;;;;;;-142.75;60.75;76212.03;4995042;28;20359;-78
2021/09/08 07:13:05;;;;;;;;;;;;;;;-142.75;63.47;76320.31;4994869;28;19967;-79
2021/09/08 07:15:30;;;;;;;;;;;;;;;-142.75;63.98;76280.94;4995548;28;19920;-78
2021/09/08 07:17:55;;;;;;;;;;;;;;;-142.75;60.82;76143.16;4978610;28;20168;-79
2021/09/08 07:20:20;;;;;;;;;;;;;;;-142.75;58.97;76111.66;4995435;28;19914;-79
2021/09/08 07:22:45;;;;;;;;;;;;;;;-142.75;58.21;76101.81;4977768;28;20302;-77
2021/09/08 07:25:11;;;;;;;;;;;;;;;-142.75;58.35;76145.13;4975295;28;19914;-78
2021/09/08 07:27:36;;;;;;;;;;;;;;;-142.75;61.14;76227.78;4975888;28;19963;-77
2021/09/08 07:30:02;;;;;;;;;;;;;;;-142.75;59.38;76141.19;4989378;28;20283;-78
2021/09/08 07:32:27;;;;;;;;;;;;;;;-142.75;57.98;76093.94;4974811;28;20295;-78
2021/09/08 07:34:57;;;;;;;;;;;;;;;-142.75;57.28;76052.63;4991805;28;19914;-79
2021/09/08 07:37:23;;;;;;;;;;;;;;;-142.75;57.02;76027.03;4992771;28;19914;-78
2021/09/08 07:39:48;;;;;;;;;;;;;;;-142.75;56.71;76011.28;4975034;28;19914;-78
2021/09/08 07:42:13;;;;;;;;;;;;;;;-142.75;56.11;75983.72;4974721;28;19925;-79
2021/09/08 07:44:41;;;;;;;;;;;;;;;-142.75;56.17;75971.91;4974683;28;19918;-78
2021/09/08 07:47:06;;;;;;;;;;;;;;;-142.75;55.14;75940.44;4989712;28;19921;-79
2021/09/08 07:49:32;;;;;;;;;;;;;;;-142.75;54.50;75883.34;4972697;28;20005;-77
2021/09/08 07:51:57;;;;;;;;;;;;;;;-142.75;54.15;75893.19;4987534;28;19969;-78
2021/09/08 07:54:22;;;;;;;;;;;;;;;-142.75;52.92;75847.94;4975494;28;20374;-79
2021/09/08 07:56:47;;;;;;;;;;;;;;;-142.75;53.62;75842.03;4975243;28;19914;-77
2021/09/08 07:59:13;;;;;;;;;;;;;;;-142.75;52.37;75804.63;4990363;28;19913;-79
2021/09/08 08:01:38;;;;;;;;;;;;;;;-142.75;53.03;75842.03;4975278;28;19913;-78
2021/09/08 08:04:03;;;;;;;;;;;;;;;-142.75;52.28;75788.88;4975084;28;20404;-79
2021/09/08 08:06:28;;;;;;;;;;;;;;;-142.75;50.96;75753.47;4971263;28;19945;-78
2021/09/08 08:08:53;;;;;;;;;;;;;;;-142.75;51.25;75763.28;4975160;28;20004;-79
2021/09/08 08:11:18;;;;;;;;;;;;;;;-142.75;50.58;75733.78;4992459;28;20370;-79
2021/09/08 08:13:47;;;;;;;;;;;;;;;-142.75;50.07;75686.53;4990329;28;19925;-78
2021/09/08 08:16:12;;;;;;;;;;;;;;;-142.75;50.80;75765.25;4974085;28;20005;-78
2021/09/08 08:18:38;;;;;;;;;;;;;;;-142.75;49.65;75676.69;4991152;28;19949;-79
2021/09/08 08:21:03;;;;;;;;;;;;;;;-142.75;49.62;75657.03;4991315;28;20366;-77
2021/09/08 08:23:28;;;;;;;;;;;;;;;-142.75;49.60;75700.31;4975193;28;19914;-79
2021/09/08 08:25:53;;;;;;;;;;;;;;;-142.75;49.30;75651.13;4992126;28;20045;-78
2021/09/08 08:28:18;;;;;;;;;;;;;;;-142.75;48.62;75657.03;4992359;28;19997;-77
2021/09/08 08:30:43;;;;;;;;;;;;;;;-142.75;49.01;75657.03;4973248;28;19983;-79
2021/09/08 08:33:09;;;;;;;;;;;;;;;-142.75;49.60;75670.81;4974350;28;19924;-77
2021/09/08 08:35:34;;;;;;;;;;;;;;;-142.75;48.87;75605.84;4975226;28;19914;-79
2021/09/08 08:37:59;;;;;;;;;;;;;;;-142.75;48.53;75562.56;4974261;28;19957;-77
2021/09/08 08:40:25;;;;;;;;;;;;;;;-142.75;48.79;75660.97;4974246;28;19939;-79
2021/09/08 08:42:51;;;;;;;;;;;;;;;-142.75;49.07;75609.78;4992007;28;19928;-80
2021/09/08 08:45:16;;;;;;;;;;;;;;;-142.75;48.85;75592.09;4974614;28;19920;-79
2021/09/08 08:47:42;;;;;;;;;;;;;;;-142.75;47.46;75533.03;4973971;28;20615;-78
2021/09/08 08:50:11;;;;;;;;;;;;;;;-142.75;47.48;75554.69;4975061;28;19921;-77
2021/09/08 08:52:37;;;;;;;;;;;;;;;-142.75;46.32;75499.59;4991133;28;19918;-80
2021/09/08 08:55:02;;;;;;;;;;;;;;;-142.75;46.96;75527.13;4973625;28;19914;-80
2021/09/08 08:57:28;;;;;;;;;;;;;;;-142.75;47.42;75576.34;4990924;28;19918;-77
2021/09/08 08:59:53;;;;;;;;;;;;;;;-142.75;47.51;75554.69;4991622;28;19913;-78
2021/09/08 09:02:24;;;;;;;;;;;;;;;-142.75;47.87;75546.81;4990997;28;19933;-78
2021/09/08 09:04:51;;;;;;;;;;;;;;;-142.75;47.83;75566.50;4991953;28;20306;-78
2021/09/08 09:07:20;;;;;;;;;;;;;;;-142.75;47.47;75536.97;4991763;28;19914;-78
2021/09/08 09:09:50;;;;;;;;;;;;;;;-142.75;47.10;75507.47;4974151;28;20375;-77
2021/09/08 09:12:15;;;;;;;;;;;;;;;-142.75;46.73;75511.41;4992020;28;20008;-80
2021/09/08 09:14:40;;;;;;;;;;;;;;;-142.75;46.20;75497.63;4991431;28;20407;-79
2021/09/08 09:17:10;;;;;;;;;;;;;;;-142.75;46.54;75470.06;4991934;28;19913;-80
2021/09/08 09:19:44;;;;;;;;;;;;;;;-142.75;45.54;75405.13;4973471;28;20392;-79
2021/09/08 09:22:09;;;;;;;;;;;;;;;-142.75;45.24;75434.66;4973731;28;19913;-78
2021/09/08 09:24:39;;;;;;;;;;;;;;;-142.75;45.70;75424.81;4974027;28;20379;-80
2021/09/08 09:27:09;;;;;;;;;;;;;;;-142.75;45.27;75432.69;4972622;28;19913;-78
2021/09/08 09:29:34;;;;;;;;;;;;;;;-142.75;45.11;75430.72;4991920;28;19913;-79
2021/09/08 09:32:01;;;;;;;;;;;;;;;-142.75;45.43;75436.59;4973952;28;19928;-78
2021/09/08 09:34:28;;;;;;;;;;;;;;;-142.75;45.12;75395.28;4993133;28;19935;-79
2021/09/08 09:36:54;;;;;;;;;;;;;;;-142.75;45.12;75365.75;4974558;28;19918;-79
2021/09/08 09:39:20;;;;;;;;;;;;;;;-142.75;44.73;75395.28;4978439;28;19921;-79
2021/09/08 09:41:45;;;;;;;;;;;;;;;-142.75;44.01;75322.47;4993216;28;19947;-79
2021/09/08 09:44:14;;;;;;;;;;;;;;;-142.75;42.98;75350.03;4996461;22;19922;-77
2021/09/08 09:46:40;;;;;;;;;;;;;;;-142.75;42.58;75332.31;4985405;28;20654;-77
2021/09/08 09:49:06;;;;;;;;;;;;;;;-142.75;42.23;75202.44;4987176;28;19914;-75
2021/09/08 09:51:31;;;;;;;;;;;;;;;-142.75;42.67;75184.72;4953312;28;19918;-77
2021/09/08 09:53:57;;;;;;;;;;;;;;;-142.75;42.59;75194.56;5001969;28;19913;-76
2021/09/08 09:56:22;;;;;;;;;;;;;;;-142.75;41.97;75198.50;5002378;28;19929;-77
2021/09/08 09:58:47;;;;;;;;;;;;;;;-142.75;40.67;75170.94;5008752;28;20056;-77
2021/09/08 10:01:12;;;;;;;;;;;;;;;-142.75;41.11;75265.41;4980442;28;19937;-76
2021/09/08 10:03:39;;;;;;;;;;;;;;;-142.75;41.53;75283.13;4982892;28;20102;-76
2021/09/08 10:06:04;;;;;;;;;;;;;;;-142.75;41.86;75291.00;4983899;28;19968;-76
2021/09/08 10:08:31;;;;;;;;;;;;;;;-142.75;41.47;75275.25;5005352;28;19913;-76
2021/09/08 10:11:00;;;;;;;;;;;;;;;-142.75;42.31;75247.69;5006831;28;19918;-75
2021/09/08 10:13:28;;;;;;;;;;;;;;;-142.75;41.79;75192.59;5000474;28;19917;-77
2021/09/08 10:15:54;;;;;;;;;;;;;;;-142.75;41.29;75137.50;4991878;28;19913;-76
2021/09/08 10:18:22;;;;;;;;;;;;;;;-142.75;41.88;75267.38;4994991;28;20302;-75
2021/09/08 10:20:51;;;;;;;;;;;;;;;-142.75;40.94;75180.78;5003889;28;20290;-76
2021/09/08 10:23:16;;;;;;;;;;;;;;;-142.75;40.53;75237.84;5002557;28;19913;-77
2021/09/08 10:25:48;;;;;;;;;;;;;;;-142.75;41.29;75180.78;4989738;28;19958;-75
2021/09/08 10:28:14;;;;;;;;;;;;;;;-142.75;40.12;75202.44;4983169;28;19913;-78
2021/09/08 10:30:42;;;;;;;;;;;;;;;-142.75;41.37;75275.25;5008533;28;19918;-76
2021/09/08 10:33:07;;;;;;;;;;;;;;;-142.75;41.95;75269.34;4988208;28;19921;-76
2021/09/08 10:35:38;;;;;;;;;;;;;;;-142.75;41.99;75224.09;4988519;28;20326;-76
2021/09/08 10:38:08;;;;;;;;;;;;;;;-142.75;40.95;75121.75;4991841;28;20043;-76
2021/09/08 10:40:34;;;;;;;;;;;;;;;-142.75;39.79;75113.88;4985682;28;20011;-75
2021/09/08 10:43:01;;;;;;;;;;;;;;;-142.75;40.14;75151.28;4996614;28;20451;-77
2021/09/08 10:45:26;;;;;;;;;;;;;;;-142.75;40.42;75147.34;5004530;28;20375;-76
2021/09/08 10:47:52;;;;;;;;;;;;;;;-142.75;38.77;75109.94;4980903;28;19920;-76
2021/09/08 10:50:37;;;;;;;;;;;;;;;-142.75;39.71;75121.75;5004934;28;19913;-76
2021/09/08 10:53:22;;;;;;;;;;;;;;;-142.75;40.12;75170.94;5003042;28;20554;-75
2021/09/08 10:55:51;;;;;;;;;;;;;;;-142.75;41.39;75157.19;4997820;28;19921;-74
2021/09/08 10:58:17;;;;;;;;;;;;;;;-142.75;40.22;75111.91;5012323;28;19920;-76
2021/09/08 11:00:43;;;;;;;;;;;;;;;-142.75;39.41;75127.66;5010775;28;20521;-76
2021/09/08 11:03:23;;;;;;;;;;;;;;;-142.75;39.52;75129.63;4990181;28;19914;-77
2021/09/08 11:05:49;;;;;;;;;;;;;;;-142.75;40.34;75117.81;5005617;28;19913;-76
2021/09/08 11:08:25;;;;;;;;;;;;;;;-142.75;38.24;75106.00;5003956;28;19914;-75
2021/09/08 11:10:51;;;;;;;;;;;;;;;-142.75;40.05;75157.19;4996851;28;19962;-75
2021/09/08 11:13:26;;;;;;;;;;;;;;;-142.75;40.26;75141.44;5012410;28;19920;-75
2021/09/08 11:15:51;;;;;;;;;;;;;;;-142.75;38.94;75066.66;5011585;28;19914;-76
2021/09/08 11:18:16;;;;;;;;;;;;;;;-142.75;38.99;75064.69;5004593;28;20046;-76
2021/09/08 11:20:41;;;;;;;;;;;;;;;-142.75;37.88;75106.00;4994759;28;19913;-76
2021/09/08 11:23:10;;;;;;;;;;;;;;;-142.75;38.87;75104.03;4998683;28;19992;-77
2021/09/08 11:25:37;;;;;;;;;;;;;;;-142.75;39.48;75133.56;5007677;28;20275;-75
2021/09/08 11:28:03;;;;;;;;;;;;;;;-142.75;40.02;75184.72;5010630;28;19914;-76
2021/09/08 11:30:30;;;;;;;;;;;;;;;-142.75;41.32;75247.69;4984293;28;19920;-76
2021/09/08 11:32:56;;;;;;;;;;;;;;;-142.75;42.50;75289.03;4974680;28;19921;-76
2021/09/08 11:35:41;;;;;;;;;;;;;;;-142.75;42.18;75312.63;4976013;28;19913;-77
2021/09/08 11:38:08;;;;;;;;;;;;;;;-142.75;42.41;75361.84;4975959;28;19920;-76
2021/09/08 11:40:34;;;;;;;;;;;;;;;-142.75;41.67;75350.03;4993106;28;19936;-75
2021/09/08 11:42:59;;;;;;;;;;;;;;;-142.75;42.54;75346.09;4985472;28;20383;-76
2021/09/08 11:45:26;;;;;;;;;;;;;;;-142.75;43.72;75306.72;5011943;28;20279;-76
2021/09/08 11:47:51;;;;;;;;;;;;;;;-142.75;42.49;75371.66;5013134;28;19996;-77
2021/09/08 11:50:16;;;;;;;;;;;;;;;-142.75;43.31;75353.97;5009233;28;20002;-76
2021/09/08 11:52:41;;;;;;;;;;;;;;;-142.75;42.88;75375.59;5004652;28;19936;-76
2021/09/08 11:55:07;;;;;;;;;;;;;;;-142.75;42.50;75353.97;5006790;28;19930;-76
2021/09/08 11:57:32;;;;;;;;;;;;;;;-142.75;42.28;75395.28;5003950;28;19941;-77
2021/09/08 11:59:57;;;;;;;;;;;;;;;-142.75;43.11;75383.47;4981383;28;19913;-76
2021/09/08 12:02:22;;;;;;;;;;;;;;;-142.75;42.86;75401.19;4999867;28;19914;-76
2021/09/08 12:04:47;;;;;;;;;;;;;;;-142.75;42.82;75389.38;4980272;28;20000;-74
2021/09/08 12:07:13;;;;;;;;;;;;;;;-142.75;42.41;75385.44;5000889;28;20286;-76
2021/09/08 12:09:40;;;;;;;;;;;;;;;-142.75;41.47;75397.25;4984437;28;19970;-76
2021/09/08 12:12:09;;;;;;;;;;;;;;;-142.75;41.48;75393.31;4983102;28;20291;-76
2021/09/08 12:14:35;;;;;;;;;;;;;;;-142.75;42.39;75389.38;5003787;28;20387;-77
2021/09/08 12:17:12;;;;;;;;;;;;;;;-142.75;42.31;75395.28;4989108;28;19913;-76
2021/09/08 12:19:38;;;;;;;;;;;;;;;-142.75;42.42;75383.47;4994821;28;19913;-77